Archival Weather

NSFA McMurdo Sound

NSFA McMurdo Sound, Antarctica (NZCM)

Report from: Friday, September 23, 2022 11:55 AM UTC
Current time: Sunday, December 4, 2022 11:02 AM UTC

Current weather
Weather history
Weather forecast

Present weatherLight snow, mist
Temperature-20.2°C (-4.4°F)
Wind chill-33.1°C (-27.5°F)
Dew point-24.7°C (-12.5°F)
Winds 17 kts (8.7 m/s, 19.6 mph) East-Northeast (60°)
Wind gusts 26 kts (13.4 m/s, 29.9 mph)
Peak wind 31 kts (15.9 m/s, 35.7 mph) East-Northeast (70°) at 06:39
Visibility2.2 mi. (3.6 km)
Clouds Ceiling: Overcast 1,700 ft. (518 m)
Altimeter28.62 in.Hg (969 mB)
Precip. events Snow began 11:01 AM
Snow ended 11:27 AM
Snow began 11:37 AM
Relative humidity67 %
Density altitude-2,933 ft. (-894 m)
Sea-level pressure107.0 kPa (1070 mB, 31.59 in.Hg)
Max temp last 6 hours-18.3°C (-0.9°F)
Min temp last 6 hours-23.0°C (-9.4°F)
Max temp last 24 hours-17.8°C (-0.0°F)
Min temp last 24 hours-28.4°C (-19.1°F)
Remarks Fully automated report
System requires maintenance
Automated weather observing station with precipitation discriminator
Pressure falling more quickly
Flight conditions Instrument Meteorological Conditions
Raw dataNZCM 231155Z AUTO 06017G26KT 3600 -SN BR OVC017 M20/M25 A2862 RMK AO2 PK WND 07031/1139 SNB1101E1127B1137 SLP698 T12021247 11183 21230 411781284 58016 $
An error has occurred. This application may no longer respond until reloaded. Reload 🗙